Time;durP1;ratioP1;P1;durP2;ratioP2;P2;SDS_P1;SDS_P2;PMS_P1;PMS_P2;Temp;Humidity;BMP_temperature;BMP_pressure;BME280_temperature;BME280_humidity;BME280_pressure;Samples;Min_cycle;Max_cycle;Signal;HPM_P1;HPM_P2
2022/03/03 00:02:00;;;;;;;7.72;3.22;;;-1.50;99.90;;;;;;5045747;28;20029;-67
2022/03/03 00:04:26;;;;;;;6.97;2.78;;;-1.60;99.90;;;;;;5041262;28;20027;-67
2022/03/03 00:06:51;;;;;;;8.07;2.58;;;-1.60;99.90;;;;;;5045888;28;20048;-67
2022/03/03 00:09:17;;;;;;;9.27;4.38;;;-1.60;99.90;;;;;;5042705;28;20036;-67
2022/03/03 00:11:43;;;;;;;7.97;2.72;;;-1.50;99.90;;;;;;5042587;28;20103;-67
2022/03/03 00:14:09;;;;;;;6.22;2.65;;;-1.30;99.90;;;;;;5040718;28;20032;-67
2022/03/03 00:16:34;;;;;;;10.57;3.83;;;-1.30;99.90;;;;;;5047082;28;20033;-67
2022/03/03 00:19:00;;;;;;;12.50;3.70;;;-1.50;99.90;;;;;;5047295;28;20485;-67
2022/03/03 00:21:26;;;;;;;9.15;2.85;;;-1.60;99.90;;;;;;5045748;28;20025;-67
2022/03/03 00:23:51;;;;;;;16.73;3.85;;;-1.60;99.90;;;;;;5043417;28;20050;-67
2022/03/03 00:26:17;;;;;;;7.95;3.38;;;-1.40;99.90;;;;;;5048286;28;20029;-67
2022/03/03 00:28:43;;;;;;;14.48;4.75;;;-1.20;99.90;;;;;;5049238;28;20072;-67
2022/03/03 00:31:09;;;;;;;11.88;3.22;;;-1.40;99.90;;;;;;5051685;28;20029;-67
2022/03/03 00:33:34;;;;;;;5.28;2.58;;;-1.60;99.90;;;;;;5045859;28;20543;-66
2022/03/03 00:36:01;;;;;;;6.95;4.18;;;-1.80;99.90;;;;;;5050962;28;20559;-67
2022/03/03 00:38:27;;;;;;;9.18;3.60;;;-1.90;99.90;;;;;;5046490;28;20029;-67
2022/03/03 00:40:53;;;;;;;6.90;2.95;;;-1.80;99.90;;;;;;5052600;28;20087;-67
2022/03/03 00:43:19;;;;;;;10.32;3.25;;;-1.70;99.90;;;;;;5040011;28;20079;-67
2022/03/03 00:45:45;;;;;;;8.70;3.45;;;-1.60;99.90;;;;;;5048272;28;20111;-67
2022/03/03 00:48:11;;;;;;;8.95;2.72;;;-1.50;99.90;;;;;;5045403;28;20190;-66
2022/03/03 00:50:36;;;;;;;15.07;5.25;;;-1.60;99.90;;;;;;5044480;28;20414;-67
2022/03/03 00:53:03;;;;;;;7.13;3.25;;;-1.60;99.90;;;;;;5042626;28;20477;-67
2022/03/03 00:55:28;;;;;;;5.35;2.75;;;-1.50;99.90;;;;;;5039565;28;20355;-67
2022/03/03 00:57:54;;;;;;;8.88;2.10;;;-1.60;99.90;;;;;;5045400;28;20028;-67
2022/03/03 01:00:19;;;;;;;9.60;4.53;;;-1.60;99.90;;;;;;5039212;28;20045;-67
2022/03/03 01:02:46;;;;;;;6.57;3.20;;;-1.40;99.90;;;;;;5037046;28;20029;-67
2022/03/03 01:05:12;;;;;;;30.65;3.90;;;-1.50;99.90;;;;;;5034882;28;20036;-67
2022/03/03 01:07:38;;;;;;;9.38;3.88;;;-1.40;99.90;;;;;;5047482;28;20012;-67
2022/03/03 01:10:06;;;;;;;6.47;2.20;;;-1.50;99.90;;;;;;5050021;28;20244;-67
2022/03/03 01:12:31;;;;;;;7.35;3.15;;;-1.70;99.90;;;;;;5043272;28;20078;-67
2022/03/03 01:14:57;;;;;;;7.70;3.95;;;-1.70;99.90;;;;;;5049550;28;20121;-67
2022/03/03 01:17:22;;;;;;;5.97;3.17;;;-1.50;99.90;;;;;;5046582;28;20025;-66
2022/03/03 01:19:48;;;;;;;5.03;2.72;;;-1.60;99.90;;;;;;5047885;28;20028;-66
2022/03/03 01:22:16;;;;;;;13.35;4.05;;;-1.70;99.90;;;;;;5039263;28;20139;-67
2022/03/03 01:24:42;;;;;;;6.75;3.30;;;-1.80;99.90;;;;;;5047283;28;20028;-67
2022/03/03 01:27:08;;;;;;;9.40;5.32;;;-1.80;99.90;;;;;;5049249;28;20030;-67
2022/03/03 01:29:33;;;;;;;6.53;3.28;;;-2.00;99.90;;;;;;5037807;28;20046;-67
2022/03/03 01:31:59;;;;;;;5.88;2.70;;;-2.20;99.90;;;;;;5043511;28;20044;-67
2022/03/03 01:34:25;;;;;;;9.27;4.32;;;-2.30;99.90;;;;;;5051704;28;20036;-67
2022/03/03 01:36:50;;;;;;;6.28;2.33;;;-2.40;99.90;;;;;;5044207;28;20035;-67
2022/03/03 01:39:16;;;;;;;5.93;2.95;;;-2.30;99.90;;;;;;5040070;28;20033;-66
2022/03/03 01:41:42;;;;;;;10.00;3.13;;;-2.20;99.90;;;;;;5041099;28;20601;-66
2022/03/03 01:44:08;;;;;;;6.88;2.28;;;-2.10;99.90;;;;;;5041341;28;20021;-66
2022/03/03 01:46:34;;;;;;;7.80;3.47;;;-2.20;99.90;;;;;;5046895;28;20032;-67
2022/03/03 01:49:00;;;;;;;5.43;2.95;;;-2.30;99.90;;;;;;5044551;28;20022;-67
2022/03/03 01:51:26;;;;;;;8.65;4.40;;;-2.50;99.90;;;;;;5047544;28;20303;-67
2022/03/03 01:53:51;;;;;;;6.15;3.25;;;-2.50;99.90;;;;;;5042061;28;20033;-66
2022/03/03 01:56:18;;;;;;;7.97;3.13;;;-2.50;99.90;;;;;;5043486;28;20030;-66
2022/03/03 01:58:45;;;;;;;7.63;2.58;;;-2.50;99.90;;;;;;5044182;28;20036;-66
2022/03/03 02:01:12;;;;;;;8.02;3.22;;;-2.50;99.90;;;;;;5041237;28;20622;-66
2022/03/03 02:03:38;;;;;;;7.03;2.80;;;-2.40;99.90;;;;;;5038817;28;20064;-66
2022/03/03 02:06:04;;;;;;;6.63;1.95;;;-2.30;99.90;;;;;;5046714;28;20053;-66
2022/03/03 02:08:29;;;;;;;13.18;2.40;;;-2.40;99.90;;;;;;5038407;28;20025;-66
2022/03/03 02:10:55;;;;;;;6.55;3.58;;;-2.40;99.90;;;;;;5039660;28;20043;-66
2022/03/03 02:13:21;;;;;;;3.92;2.22;;;-2.50;99.90;;;;;;5036968;28;20025;-67
2022/03/03 02:15:51;;;;;;;8.40;2.72;;;-2.50;99.90;;;;;;5037754;28;20695;-67
2022/03/03 02:18:17;;;;;;;;;;;-2.50;99.90;;;;;;5037002;28;20049;-67
2022/03/03 02:20:43;;;;;;;13.10;3.03;;;-2.50;99.90;;;;;;5040582;28;20292;-67
2022/03/03 02:23:08;;;;;;;6.80;2.45;;;-2.50;99.90;;;;;;5042994;28;20045;-67
2022/03/03 02:25:34;;;;;;;8.38;3.67;;;-2.60;99.90;;;;;;5044517;28;20160;-67
2022/03/03 02:28:00;;;;;;;8.88;3.25;;;-2.70;99.90;;;;;;5045694;28;20030;-67
2022/03/03 02:30:26;;;;;;;7.40;2.75;;;-2.70;99.90;;;;;;5043160;28;20045;-67
2022/03/03 02:32:52;;;;;;;6.25;2.50;;;-2.40;99.90;;;;;;5041228;28;20088;-67
2022/03/03 02:35:18;;;;;;;10.30;3.40;;;-2.40;99.90;;;;;;5043824;28;20025;-67
2022/03/03 02:37:45;;;;;;;5.53;3.33;;;-2.40;99.90;;;;;;5045917;28;20128;-67
2022/03/03 02:40:20;;;;;;;6.10;1.98;;;-2.50;99.90;;;;;;5040521;28;20048;-67
2022/03/03 02:42:50;;;;;;;17.83;4.50;;;-2.50;99.90;;;;;;5037764;28;20046;-67
2022/03/03 02:45:17;;;;;;;5.18;3.03;;;-2.60;99.90;;;;;;5048768;28;20022;-67
2022/03/03 02:47:47;;;;;;;5.30;2.78;;;-2.60;99.90;;;;;;5040013;28;20079;-67
2022/03/03 02:50:15;;;;;;;12.40;3.55;;;-2.50;99.90;;;;;;5033047;28;20109;-67
2022/03/03 02:52:40;;;;;;;8.93;3.13;;;-2.50;99.90;;;;;;5037708;28;20025;-67
2022/03/03 02:55:07;;;;;;;7.55;2.33;;;-2.60;99.90;;;;;;5041842;28;20029;-67
2022/03/03 03:00:17;;;;;;;5.88;3.03;;;-2.50;99.90;;;;;;5036644;28;20499;-67
2022/03/03 03:02:43;;;;;;;3.63;2.22;;;-2.50;99.90;;;;;;5038989;28;20025;-67
2022/03/03 03:05:09;;;;;;;6.28;3.33;;;-2.40;99.90;;;;;;5031659;28;20051;-67
2022/03/03 03:07:35;;;;;;;3.13;1.83;;;-2.20;99.90;;;;;;5033316;28;20014;-67
2022/03/03 03:10:01;;;;;;;3.63;2.20;;;-2.00;99.90;;;;;;5038408;28;20025;-67
2022/03/03 03:12:26;;;;;;;4.78;2.72;;;-2.00;99.90;;;;;;5036530;28;20060;-67
2022/03/03 03:14:52;;;;;;;7.25;3.00;;;-2.00;99.90;;;;;;5044900;28;20060;-67
2022/03/03 03:17:18;;;;;;;4.38;2.47;;;-2.20;99.90;;;;;;5035291;28;20100;-67
2022/03/03 03:19:43;;;;;;;11.25;3.08;;;-2.40;99.90;;;;;;5037989;28;20025;-67
2022/03/03 03:22:09;;;;;;;13.70;3.92;;;-2.30;99.90;;;;;;5035217;28;20065;-67
2022/03/03 03:24:34;;;;;;;6.82;3.38;;;-2.20;99.90;;;;;;5033673;28;20021;-67
2022/03/03 03:27:00;;;;;;;4.35;2.58;;;-2.30;99.90;;;;;;5049070;28;20367;-67
2022/03/03 03:29:26;;;;;;;5.25;2.70;;;-2.20;99.90;;;;;;5037907;28;20049;-67
2022/03/03 03:31:51;;;;;;;4.03;2.38;;;-2.20;99.90;;;;;;5041417;28;20026;-67
2022/03/03 03:34:17;;;;;;;4.43;2.70;;;-2.30;99.90;;;;;;5047500;28;20055;-67
2022/03/03 03:36:42;;;;;;;5.63;2.33;;;-2.40;99.90;;;;;;5041970;28;20068;-67
2022/03/03 03:39:08;;;;;;;8.60;3.28;;;-2.50;99.90;;;;;;5045976;28;20033;-67
2022/03/03 03:41:34;;;;;;;10.07;4.03;;;-2.60;99.90;;;;;;5041002;28;20040;-67
2022/03/03 03:43:59;;;;;;;12.98;2.72;;;-2.70;99.90;;;;;;5039800;28;20067;-67
2022/03/03 03:46:25;;;;;;;3.72;2.45;;;-2.70;99.90;;;;;;5044936;28;20061;-67
2022/03/03 03:48:51;;;;;;;4.95;2.45;;;-2.70;99.90;;;;;;5039656;28;20032;-67
2022/03/03 03:51:16;;;;;;;2.97;1.85;;;-2.70;99.90;;;;;;5041592;28;20522;-67
2022/03/03 03:53:42;;;;;;;5.53;2.63;;;-2.70;99.90;;;;;;5037271;28;20033;-67
2022/03/03 03:56:08;;;;;;;5.22;3.05;;;-2.50;99.90;;;;;;5040818;28;20397;-67
2022/03/03 03:58:34;;;;;;;4.25;2.28;;;-2.50;99.90;;;;;;5043002;28;20029;-67
2022/03/03 04:01:00;;;;;;;8.73;3.30;;;-2.50;99.90;;;;;;5035673;28;20439;-67
2022/03/03 04:03:25;;;;;;;7.40;3.47;;;-2.70;99.90;;;;;;5037186;28;20045;-67
2022/03/03 04:05:51;;;;;;;7.32;3.97;;;-2.70;99.90;;;;;;5037349;28;20037;-67
2022/03/03 04:08:18;;;;;;;7.85;2.95;;;-2.80;99.90;;;;;;5040057;28;20029;-67
2022/03/03 04:10:44;;;;;;;10.98;3.00;;;-2.70;99.90;;;;;;5046642;28;20489;-67
2022/03/03 04:13:10;;;;;;;5.68;2.30;;;-2.70;99.90;;;;;;5047223;28;20427;-67
2022/03/03 04:15:36;;;;;;;10.88;3.25;;;-2.70;99.90;;;;;;5050988;28;20044;-67
2022/03/03 04:18:01;;;;;;;4.68;2.63;;;-2.70;99.90;;;;;;5044657;28;20032;-67
2022/03/03 04:20:27;;;;;;;5.05;2.33;;;-2.60;99.90;;;;;;5042205;28;20033;-67
2022/03/03 04:22:53;;;;;;;9.13;4.43;;;-2.60;99.90;;;;;;5039985;28;20163;-67
2022/03/03 04:25:19;;;;;;;2.80;1.58;;;-2.40;99.90;;;;;;5043042;28;20040;-67
2022/03/03 04:27:44;;;;;;;4.40;2.30;;;-2.30;99.90;;;;;;5043734;28;20017;-67
2022/03/03 04:30:11;;;;;;;8.00;2.92;;;-2.20;99.90;;;;;;5045223;28;20044;-67
2022/03/03 04:32:37;;;;;;;8.27;3.08;;;-1.90;99.90;;;;;;5047035;28;20120;-67
2022/03/03 04:35:03;;;;;;;2.83;1.55;;;-2.10;99.90;;;;;;5052545;28;20036;-67
2022/03/03 04:37:29;;;;;;;4.78;2.45;;;-2.10;99.90;;;;;;5055360;28;20018;-67
2022/03/03 04:39:55;;;;;;;3.65;2.30;;;-2.30;99.90;;;;;;5052236;28;20429;-67
2022/03/03 04:42:20;;;;;;;5.63;3.33;;;-2.30;99.90;;;;;;5041298;28;20025;-67
2022/03/03 04:44:46;;;;;;;9.25;3.50;;;-2.30;99.90;;;;;;5048142;28;20649;-67
2022/03/03 04:47:12;;;;;;;4.70;2.38;;;-2.20;99.90;;;;;;5046843;28;20397;-67
2022/03/03 04:49:37;;;;;;;5.70;2.78;;;-2.20;99.90;;;;;;5042055;28;20030;-67
2022/03/03 04:52:03;;;;;;;9.65;3.05;;;-2.10;99.90;;;;;;5046471;28;20048;-67
2022/03/03 04:54:29;;;;;;;2.80;2.22;;;-2.10;99.90;;;;;;5040833;28;20024;-67
2022/03/03 04:56:55;;;;;;;5.47;3.03;;;-2.00;99.90;;;;;;5046660;28;20037;-67
2022/03/03 04:59:23;;;;;;;9.02;4.22;;;-2.20;99.90;;;;;;5042800;28;20032;-67
2022/03/03 05:01:50;;;;;;;6.28;2.55;;;-2.40;99.90;;;;;;5041213;28;20472;-67
2022/03/03 05:04:17;;;;;;;7.22;3.33;;;-2.40;99.90;;;;;;5035766;28;20044;-67
2022/03/03 05:06:42;;;;;;;5.38;2.80;;;-2.30;99.90;;;;;;5051530;28;20025;-67
2022/03/03 05:09:08;;;;;;;8.13;2.85;;;-2.10;99.90;;;;;;5044518;28;20702;-67
2022/03/03 05:11:33;;;;;;;5.22;2.40;;;-2.00;99.90;;;;;;5041938;28;20033;-67
2022/03/03 05:13:59;;;;;;;4.70;2.25;;;-1.80;99.90;;;;;;5037195;28;20500;-67
2022/03/03 05:16:25;;;;;;;3.92;2.17;;;-1.80;99.90;;;;;;5037481;28;20037;-67
2022/03/03 05:18:50;;;;;;;7.78;2.05;;;-2.00;99.90;;;;;;5038629;28;20390;-67
2022/03/03 05:21:16;;;;;;;6.90;3.20;;;-2.10;99.90;;;;;;5044808;28;20024;-67
2022/03/03 05:23:41;;;;;;;3.13;2.13;;;-1.90;99.90;;;;;;5034349;28;20025;-67
2022/03/03 05:26:07;;;;;;;8.95;3.53;;;-1.60;99.90;;;;;;5041630;28;20033;-67
2022/03/03 05:28:33;;;;;;;2.60;1.80;;;-1.40;99.90;;;;;;5038173;28;20571;-66
2022/03/03 05:30:58;;;;;;;7.75;3.30;;;-1.20;99.90;;;;;;5045824;28;20037;-66
2022/03/03 05:33:25;;;;;;;5.00;2.45;;;-1.20;99.90;;;;;;5039394;28;20029;-67
2022/03/03 05:35:59;;;;;;;3.08;1.63;;;-1.10;99.90;;;;;;5045694;28;20036;-67
2022/03/03 05:38:29;;;;;;;5.93;2.63;;;-1.20;99.90;;;;;;5045555;28;20037;-67
2022/03/03 05:40:54;;;;;;;4.57;1.88;;;-1.40;99.90;;;;;;5040195;28;20075;-66
2022/03/03 05:43:20;;;;;;;6.70;3.00;;;-1.40;99.90;;;;;;5040695;28;20108;-66
2022/03/03 05:45:47;;;;;;;5.93;2.40;;;-1.50;99.90;;;;;;5042956;28;20051;-66
2022/03/03 05:48:17;;;;;;;9.70;2.92;;;-1.60;99.90;;;;;;5043425;28;20110;-67
2022/03/03 05:50:42;;;;;;;5.53;2.40;;;-1.70;99.90;;;;;;5046390;28;20021;-67
2022/03/03 05:53:08;;;;;;;5.70;2.10;;;-1.70;99.90;;;;;;5047178;28;20379;-66
2022/03/03 05:55:41;;;;;;;4.90;1.90;;;-1.70;99.90;;;;;;5046945;28;20064;-66
2022/03/03 05:58:16;;;;;;;11.45;3.75;;;-2.00;99.90;;;;;;5041640;28;20489;-66
2022/03/03 06:00:45;;;;;;;8.80;2.50;;;-2.20;99.90;;;;;;5045458;28;20028;-66
2022/03/03 06:03:20;;;;;;;5.22;2.60;;;-2.40;99.90;;;;;;5043311;28;20514;-66
2022/03/03 06:05:56;;;;;;;5.80;2.40;;;-2.40;99.90;;;;;;5046961;28;20060;-70
2022/03/03 06:08:31;;;;;;;3.00;1.45;;;-2.50;99.90;;;;;;5037869;28;20397;-70
2022/03/03 06:11:01;;;;;;;6.88;2.92;;;-2.50;99.90;;;;;;5043711;28;20032;-70
2022/03/03 06:13:38;;;;;;;3.83;2.50;;;-2.50;99.90;;;;;;5039785;28;20029;-70
2022/03/03 06:16:04;;;;;;;6.80;2.95;;;-2.40;99.90;;;;;;5033857;28;20122;-70
2022/03/03 06:18:32;;;;;;;3.85;1.95;;;-2.30;99.90;;;;;;5041435;28;20037;-70
2022/03/03 06:20:58;;;;;;;5.65;3.08;;;-2.30;99.90;;;;;;5033629;28;20166;-70
2022/03/03 06:23:24;;;;;;;9.38;3.80;;;-2.20;99.90;;;;;;5036073;28;20056;-70
2022/03/03 06:26:06;;;;;;;4.25;2.15;;;-2.20;99.90;;;;;;5043151;28;20063;-70
2022/03/03 06:28:33;;;;;;;4.15;1.90;;;-2.10;99.90;;;;;;5044044;28;20045;-70
2022/03/03 06:30:59;;;;;;;5.97;2.67;;;-2.20;99.90;;;;;;5050482;28;20115;-70
2022/03/03 06:33:25;;;;;;;5.95;2.72;;;-2.30;99.90;;;;;;5038567;28;20474;-70
2022/03/03 06:35:51;;;;;;;9.27;2.33;;;-2.30;99.90;;;;;;5039105;28;20053;-70
2022/03/03 06:38:17;;;;;;;5.22;2.65;;;-2.20;99.90;;;;;;5035089;28;20029;-70
2022/03/03 06:40:42;;;;;;;6.80;2.33;;;-2.30;99.90;;;;;;5038906;28;20029;-70
2022/03/03 06:43:08;;;;;;;14.05;3.13;;;-2.30;99.90;;;;;;5034156;28;20025;-70
2022/03/03 06:45:34;;;;;;;4.22;2.78;;;-2.20;99.90;;;;;;5032972;28;20025;-70
2022/03/03 06:48:02;;;;;;;9.02;3.08;;;-2.30;99.90;;;;;;5038900;28;20440;-70
2022/03/03 06:50:28;;;;;;;6.32;3.03;;;-2.30;99.90;;;;;;5036308;28;20036;-70
2022/03/03 06:52:54;;;;;;;7.07;2.75;;;-2.30;99.90;;;;;;5036791;28;20688;-70
2022/03/03 06:55:25;;;;;;;4.68;2.15;;;-2.20;99.90;;;;;;5037838;28;20037;-69
2022/03/03 06:57:54;;;;;;;4.47;2.05;;;-2.20;99.90;;;;;;5037450;28;20032;-69
2022/03/03 07:00:23;;;;;;;8.80;2.90;;;-2.30;99.90;;;;;;5038453;28;20402;-70
2022/03/03 07:02:49;;;;;;;8.07;2.63;;;-2.20;99.90;;;;;;5034887;28;20021;-70
2022/03/03 07:05:15;;;;;;;6.05;2.78;;;-2.20;99.90;;;;;;5036751;28;20044;-70
2022/03/03 07:07:43;;;;;;;6.35;4.05;;;-2.10;99.90;;;;;;5036517;28;20578;-69
2022/03/03 07:10:10;;;;;;;4.68;2.15;;;-2.10;99.90;;;;;;5046390;28;20029;-69
2022/03/03 07:12:40;;;;;;;4.63;3.03;;;-2.10;99.90;;;;;;5043114;28;20025;-69
2022/03/03 07:15:07;;;;;;;3.33;1.90;;;-1.90;99.90;;;;;;5040657;28;20048;-70
2022/03/03 07:17:52;;;;;;;7.78;3.17;;;-1.90;99.90;;;;;;5033596;28;20029;-70
2022/03/03 07:20:36;;;;;;;5.68;2.30;;;-1.80;99.90;;;;;;5046160;28;20018;-70
2022/03/03 07:23:13;;;;;;;4.40;2.42;;;-1.60;99.90;;;;;;5036412;28;20017;-70
2022/03/03 07:25:40;;;;;;;4.72;2.22;;;-1.50;99.90;;;;;;5040563;28;20036;-70
2022/03/03 07:28:09;;;;;;;6.15;2.88;;;-1.40;99.90;;;;;;5036868;28;20112;-70
2022/03/03 07:30:42;;;;;;;6.05;2.78;;;-1.30;99.90;;;;;;5029637;28;20072;-70
2022/03/03 07:33:15;;;;;;;4.60;2.20;;;-1.20;99.90;;;;;;5045093;28;20033;-70
2022/03/03 07:35:43;;;;;;;6.03;2.47;;;-1.20;99.90;;;;;;5036378;28;20040;-70
2022/03/03 07:38:19;;;;;;;6.13;2.25;;;-1.10;99.90;;;;;;5032514;28;20556;-70
2022/03/03 07:40:48;;;;;;;5.95;2.63;;;-1.00;99.90;;;;;;5031593;28;20087;-70
2022/03/03 07:43:16;;;;;;;3.40;1.63;;;-0.90;99.90;;;;;;5038301;28;20508;-70
2022/03/03 07:45:43;;;;;;;5.75;2.65;;;-0.70;99.90;;;;;;5045832;28;20078;-71
2022/03/03 07:48:11;;;;;;;5.18;2.65;;;-0.60;99.90;;;;;;5037601;28;20026;-70
2022/03/03 07:50:41;;;;;;;7.10;3.33;;;-0.40;99.90;;;;;;5043949;28;20436;-70
2022/03/03 07:53:11;;;;;;;8.85;2.50;;;-0.10;99.90;;;;;;5035316;28;20030;-70
2022/03/03 07:55:53;;;;;;;5.93;2.67;;;0.10;99.90;;;;;;5039025;28;20033;-70
2022/03/03 07:58:20;;;;;;;14.60;3.70;;;0.30;99.90;;;;;;5040921;28;20682;-70
2022/03/03 08:00:51;;;;;;;6.03;2.15;;;0.40;99.90;;;;;;5043155;28;20033;-70
2022/03/03 08:03:21;;;;;;;8.23;3.08;;;0.60;99.90;;;;;;5044239;28;20029;-70
2022/03/03 08:05:50;;;;;;;5.63;2.40;;;0.70;99.90;;;;;;5041578;28;20081;-71
2022/03/03 08:08:19;;;;;;;5.30;2.78;;;0.90;99.90;;;;;;5042914;28;20119;-70
2022/03/03 08:10:45;;;;;;;10.23;3.50;;;1.00;99.90;;;;;;5035426;28;20144;-71
2022/03/03 08:13:17;;;;;;;6.97;3.45;;;1.20;99.90;;;;;;5044677;28;20056;-71
2022/03/03 08:15:43;;;;;;;5.55;2.45;;;1.30;99.90;;;;;;5044474;28;20055;-71
2022/03/03 08:18:10;;;;;;;11.80;4.57;;;1.40;99.90;;;;;;5045978;28;20029;-71
2022/03/03 08:20:38;;;;;;;8.60;2.35;;;1.40;99.90;;;;;;5049785;28;20039;-71
2022/03/03 08:23:04;;;;;;;7.40;4.10;;;1.50;99.90;;;;;;5052267;28;20009;-71
2022/03/03 08:25:31;;;;;;;11.40;3.55;;;1.70;99.90;;;;;;5048331;28;20031;-71
2022/03/03 08:27:57;;;;;;;7.50;3.50;;;1.80;99.90;;;;;;5041785;28;20037;-71
2022/03/03 08:30:24;;;;;;;9.07;2.38;;;1.90;99.90;;;;;;5050220;28;20136;-71
2022/03/03 08:33:01;;;;;;;13.10;3.20;;;2.10;99.90;;;;;;5045951;28;20451;-71
2022/03/03 08:35:31;;;;;;;6.85;3.15;;;2.20;99.90;;;;;;5047425;28;20026;-71
2022/03/03 08:38:05;;;;;;;11.40;4.00;;;2.30;99.90;;;;;;5044121;28;20539;-71
2022/03/03 08:40:31;;;;;;;12.05;3.95;;;2.40;99.90;;;;;;5041910;28;20514;-71
2022/03/03 08:43:00;;;;;;;6.15;3.08;;;2.60;99.90;;;;;;5041000;28;20028;-71
2022/03/03 08:45:29;;;;;;;8.68;3.35;;;3.10;99.90;;;;;;5045387;28;20047;-71
2022/03/03 08:47:57;;;;;;;8.00;2.88;;;3.70;99.90;;;;;;5045231;28;20087;-71
2022/03/03 08:50:27;;;;;;;11.32;3.80;;;4.60;99.90;;;;;;5032742;28;20546;-71
2022/03/03 08:52:57;;;;;;;8.73;4.22;;;5.70;99.90;;;;;;5037195;28;20033;-71
2022/03/03 08:55:23;;;;;;;10.88;3.67;;;6.40;99.90;;;;;;5044269;28;20079;-71
2022/03/03 08:57:49;;;;;;;11.48;4.45;;;7.40;99.90;;;;;;5042337;28;20060;-72
2022/03/03 09:00:15;;;;;;;8.05;2.95;;;7.80;99.40;;;;;;5040014;28;20071;-71
2022/03/03 09:02:42;;;;;;;16.52;5.03;;;8.70;99.20;;;;;;5036407;28;20108;-71
2022/03/03 09:05:11;;;;;;;11.73;3.42;;;8.80;97.10;;;;;;5039227;28;20028;-70
2022/03/03 09:07:37;;;;;;;11.40;4.47;;;9.90;97.60;;;;;;5044630;28;20468;-71
2022/03/03 09:10:04;;;;;;;13.35;4.38;;;9.20;96.40;;;;;;5040659;28;20500;-72
2022/03/03 09:12:30;;;;;;;13.30;3.92;;;10.10;95.90;;;;;;5042464;28;20056;-72
2022/03/03 09:14:55;;;;;;;10.23;3.85;;;10.20;93.20;;;;;;5042475;28;20064;-71
2022/03/03 09:17:21;;;;;;;14.45;4.55;;;9.60;93.70;;;;;;5036770;28;20223;-72
2022/03/03 09:19:47;;;;;;;13.50;4.45;;;10.00;93.50;;;;;;5038869;28;20539;-71
2022/03/03 09:22:13;;;;;;;11.95;4.18;;;9.50;92.80;;;;;;5042063;28;20028;-71
2022/03/03 09:24:39;;;;;;;9.77;3.80;;;9.00;93.30;;;;;;5036197;28;20466;-71
2022/03/03 09:27:05;;;;;;;14.13;5.43;;;8.90;93.40;;;;;;5041586;28;20021;-71
2022/03/03 09:29:34;;;;;;;16.42;5.20;;;8.70;93.40;;;;;;5038783;28;20113;-71
2022/03/03 09:32:02;;;;;;;15.90;4.78;;;8.30;93.80;;;;;;5039133;28;20033;-71
2022/03/03 09:34:28;;;;;;;13.27;3.88;;;9.10;93.10;;;;;;5028971;28;20465;-71
2022/03/03 09:36:55;;;;;;;11.85;3.67;;;9.30;92.60;;;;;;5033093;28;20028;-71
2022/03/03 09:39:21;;;;;;;11.98;4.40;;;11.70;92.00;;;;;;5042218;28;20423;-71
2022/03/03 09:41:47;;;;;;;11.88;4.43;;;12.20;85.70;;;;;;5041215;28;20041;-71
2022/03/03 09:44:13;;;;;;;9.93;3.75;;;12.50;88.30;;;;;;5041656;28;20082;-71
2022/03/03 09:46:40;;;;;;;18.50;5.53;;;12.50;84.40;;;;;;5042617;28;20029;-71
2022/03/03 09:49:06;;;;;;;11.88;4.25;;;10.80;85.40;;;;;;5044166;28;20036;-71
2022/03/03 09:51:32;;;;;;;12.75;3.92;;;10.50;88.40;;;;;;5043178;28;20472;-71
2022/03/03 09:53:58;;;;;;;9.25;3.38;;;10.90;86.60;;;;;;5040251;28;20439;-71
2022/03/03 09:56:23;;;;;;;14.70;4.55;;;11.10;87.80;;;;;;5043502;28;20033;-71
2022/03/03 09:58:49;;;;;;;10.15;3.90;;;10.50;87.50;;;;;;5040827;28;20099;-71
2022/03/03 10:01:17;;;;;;;12.88;4.55;;;11.40;88.30;;;;;;5038874;28;20043;-71
2022/03/03 10:03:47;;;;;;;13.40;4.30;;;10.90;87.80;;;;;;5037512;28;20021;-71
2022/03/03 10:06:13;;;;;;;14.18;4.63;;;10.50;87.80;;;;;;5039684;28;20116;-71
2022/03/03 10:08:39;;;;;;;15.05;5.40;;;10.30;88.40;;;;;;5042245;28;20036;-72
2022/03/03 10:11:05;;;;;;;18.67;4.97;;;10.60;90.40;;;;;;5040585;28;20418;-71
2022/03/03 10:13:52;;;;;;;16.58;5.78;;;11.70;89.90;;;;;;5039778;28;20033;-71
2022/03/03 10:16:29;;;;;;;13.05;4.47;;;11.30;90.80;;;;;;5060294;28;20029;-71
2022/03/03 10:19:06;;;;;;;10.32;4.63;;;11.00;92.00;;;;;;5038426;28;20121;-71
2022/03/03 10:21:33;;;;;;;12.15;5.18;;;12.30;91.50;;;;;;5042358;28;20643;-71
2022/03/03 10:24:00;;;;;;;15.07;4.53;;;12.40;88.60;;;;;;5039768;28;20024;-70
2022/03/03 10:26:38;;;;;;;11.30;4.32;;;12.60;90.10;;;;;;5047307;28;20119;-71
2022/03/03 10:29:15;;;;;;;10.98;3.83;;;13.00;89.00;;;;;;5043974;28;20041;-71
2022/03/03 10:31:55;;;;;;;10.20;4.40;;;14.10;88.30;;;;;;5043477;28;20029;-72
2022/03/03 10:34:30;;;;;;;13.93;5.13;;;15.80;83.00;;;;;;5045228;28;20503;-72
2022/03/03 10:36:56;;;;;;;16.98;6.50;;;13.70;84.40;;;;;;5037005;28;20456;-72
2022/03/03 10:39:23;;;;;;;14.98;5.10;;;11.80;86.20;;;;;;5040433;28;20549;-71
2022/03/03 10:41:53;;;;;;;11.40;3.85;;;11.10;89.00;;;;;;5040543;28;20041;-71
2022/03/03 10:44:33;;;;;;;12.15;5.20;;;11.80;90.10;;;;;;5037212;28;20033;-71
2022/03/03 10:47:11;;;;;;;11.77;4.87;;;11.70;88.10;;;;;;5038044;28;20029;-71
2022/03/03 10:49:41;;;;;;;12.55;4.95;;;11.60;87.40;;;;;;5043955;28;20025;-72
2022/03/03 10:52:16;;;;;;;16.67;5.25;;;11.70;88.20;;;;;;5035714;28;20071;-71
2022/03/03 10:55:03;;;;;;;16.60;5.65;;;12.50;88.90;;;;;;5039846;28;20097;-71
2022/03/03 10:57:59;;;;;;;10.70;3.88;;;13.60;84.20;;;;;;5040204;28;20040;-71
2022/03/03 11:00:30;;;;;;;17.20;6.03;;;15.10;82.60;;;;;;5034043;28;20048;-72
2022/03/03 11:03:01;;;;;;;12.30;4.93;;;12.90;83.10;;;;;;5043167;28;20025;-71
2022/03/03 11:05:29;;;;;;;15.02;4.72;;;12.90;83.40;;;;;;5036584;28;20022;-71
2022/03/03 11:07:56;;;;;;;13.65;5.38;;;12.40;84.70;;;;;;5038745;28;20039;-71
2022/03/03 11:10:29;;;;;;;11.52;4.40;;;11.70;82.80;;;;;;5034216;28;20426;-71
2022/03/03 11:12:55;;;;;;;17.83;5.68;;;12.40;85.30;;;;;;5034064;28;20632;-71
2022/03/03 11:15:23;;;;;;;14.50;5.55;;;12.10;84.00;;;;;;5037043;28;20104;-71
2022/03/03 11:17:49;;;;;;;13.02;4.55;;;11.90;82.20;;;;;;5041522;28;20139;-71
2022/03/03 11:20:17;;;;;;;12.95;5.38;;;12.60;85.70;;;;;;5035444;28;20103;-71
2022/03/03 11:22:44;;;;;;;13.43;4.85;;;12.20;82.00;;;;;;5038932;28;20029;-71
2022/03/03 11:25:24;;;;;;;11.05;4.30;;;12.10;86.30;;;;;;5047531;28;20044;-71
2022/03/03 11:28:00;;;;;;;;;;;13.20;83.30;;;;;;5042971;28;20044;-72
2022/03/03 11:30:28;;;;;;;13.27;4.50;;;14.60;82.50;;;;;;5039618;28;19925;-72
2022/03/03 11:33:23;;;;;;;13.57;5.32;;;14.30;79.20;;;;;;5038493;28;20033;-72
2022/03/03 11:35:58;;;;;;;13.48;4.32;;;13.30;77.70;;;;;;5045413;28;20028;-72
2022/03/03 11:38:26;;;;;;;13.73;5.07;;;12.90;81.20;;;;;;5035379;28;20075;-71
2022/03/03 11:41:04;;;;;;;16.17;5.50;;;12.40;81.20;;;;;;5029735;28;20067;-72
2022/03/03 11:43:46;;;;;;;11.38;4.55;;;12.30;82.30;;;;;;5034042;28;20416;-72
2022/03/03 11:46:12;;;;;;;13.52;4.55;;;14.20;83.70;;;;;;5040137;28;20122;-72
2022/03/03 11:48:39;;;;;;;13.50;4.85;;;15.60;80.30;;;;;;5039100;28;20497;-72
2022/03/03 11:51:31;;;;;;;17.38;6.90;;;15.40;80.20;;;;;;5038630;28;20025;-72
2022/03/03 11:54:09;;;;;;;12.88;5.38;;;13.60;78.80;;;;;;5042274;28;20029;-72
2022/03/03 11:57:04;;;;;;;17.10;4.78;;;13.10;79.80;;;;;;5043564;28;20102;-71
2022/03/03 11:59:45;;;;;;;13.20;4.25;;;14.30;81.60;;;;;;5028761;28;20134;-72
2022/03/03 12:02:19;;;;;;;12.45;4.82;;;16.90;75.80;;;;;;5042349;28;20032;-72
2022/03/03 12:04:46;;;;;;;12.43;5.55;;;18.20;70.90;;;;;;5050164;28;20025;-72
2022/03/03 12:07:28;;;;;;;13.20;4.35;;;15.10;73.70;;;;;;5042230;28;20030;-72
2022/03/03 12:09:56;;;;;;;12.63;4.35;;;15.20;74.40;;;;;;5037077;28;20374;-72
2022/03/03 12:12:23;;;;;;;12.15;4.63;;;15.60;74.60;;;;;;5033845;28;20073;-72
2022/03/03 12:14:53;;;;;;;14.10;5.45;;;15.30;72.70;;;;;;5038920;28;20044;-72
2022/03/03 12:17:42;;;;;;;12.23;4.65;;;15.10;74.70;;;;;;5040950;28;20501;-72
2022/03/03 12:20:30;;;;;;;12.65;4.82;;;17.30;72.10;;;;;;5041881;28;20489;-72
2022/03/03 12:23:19;;;;;;;13.27;4.25;;;18.50;68.30;;;;;;5040325;28;20055;-72
2022/03/03 12:25:47;;;;;;;12.40;4.68;;;19.50;65.60;;;;;;5055404;28;20522;-72
2022/03/03 12:28:18;;;;;;;12.48;4.65;;;19.50;67.10;;;;;;5029283;28;20024;-72
2022/03/03 12:30:45;;;;;;;12.45;5.60;;;21.20;64.80;;;;;;5035724;28;20528;-72
2022/03/03 12:33:25;;;;;;;12.13;5.10;;;18.20;63.00;;;;;;5033668;28;20037;-72
2022/03/03 12:35:52;;;;;;;13.00;5.18;;;19.10;66.00;;;;;;5041304;28;20396;-72
2022/03/03 12:38:18;;;;;;;14.98;6.05;;;16.40;66.10;;;;;;5044211;28;20113;-72
2022/03/03 12:40:44;;;;;;;13.35;4.72;;;14.60;68.90;;;;;;5035611;28;20033;-72
2022/03/03 12:43:12;;;;;;;15.38;5.07;;;15.30;70.50;;;;;;5038345;28;20091;-72
2022/03/03 12:45:39;;;;;;;15.77;4.90;;;16.00;67.20;;;;;;5037222;28;20070;-72
2022/03/03 12:48:06;;;;;;;12.95;5.72;;;16.20;70.20;;;;;;5039787;28;20391;-72
2022/03/03 12:50:33;;;;;;;15.95;5.68;;;16.60;68.40;;;;;;5041859;28;20544;-72
2022/03/03 12:53:10;;;;;;;16.35;5.70;;;16.50;66.80;;;;;;5038522;28;20025;-72
2022/03/03 12:55:44;;;;;;;16.05;5.72;;;15.10;68.40;;;;;;5039588;28;20028;-72